createdAt,value
2022-11-16T00:00:50.868Z,8.90
2022-11-16T00:03:23.914Z,8.90
2022-11-16T00:05:58.603Z,8.90
2022-11-16T00:08:32.070Z,8.80
2022-11-16T00:11:08.873Z,8.80
2022-11-16T00:13:41.682Z,8.80
2022-11-16T00:16:17.349Z,8.90
2022-11-16T00:18:48.569Z,8.80
2022-11-16T00:21:19.808Z,8.80
2022-11-16T00:23:50.991Z,8.80
2022-11-16T00:26:23.049Z,8.80
2022-11-16T00:28:56.127Z,8.80
2022-11-16T00:31:27.474Z,8.80
2022-11-16T00:33:59.002Z,8.80
2022-11-16T00:36:30.223Z,8.80
2022-11-16T00:39:01.369Z,8.80
2022-11-16T00:41:32.667Z,8.80
2022-11-16T00:44:04.839Z,8.90
2022-11-16T00:46:36.150Z,8.90
2022-11-16T00:49:08.386Z,8.90
2022-11-16T00:51:39.689Z,8.90
2022-11-16T00:54:10.883Z,8.90
2022-11-16T00:56:42.542Z,8.90
2022-11-16T00:59:13.699Z,9.00
2022-11-16T01:01:44.882Z,9.00
2022-11-16T01:04:16.151Z,9.00
2022-11-16T01:06:47.463Z,9.00
2022-11-16T01:09:18.629Z,9.10
2022-11-16T01:12:07.517Z,9.00
2022-11-16T01:14:40.238Z,9.00
2022-11-16T01:17:11.575Z,9.00
2022-11-16T01:19:42.995Z,8.90
2022-11-16T01:22:14.198Z,9.00
2022-11-16T01:24:47.552Z,9.00
2022-11-16T01:27:18.744Z,9.00
2022-11-16T01:29:50.060Z,9.00
2022-11-16T01:32:21.714Z,9.10
2022-11-16T01:34:53.222Z,9.10
2022-11-16T01:37:24.552Z,9.10
2022-11-16T01:39:56.543Z,9.20
2022-11-16T01:42:30.215Z,9.20
2022-11-16T01:45:06.063Z,9.20
2022-11-16T01:47:38.694Z,9.20
2022-11-16T01:50:13.831Z,9.20
2022-11-16T01:52:49.104Z,9.20
2022-11-16T01:55:21.059Z,9.20
2022-11-16T01:57:52.650Z,9.10
2022-11-16T02:00:24.205Z,9.10
2022-11-16T02:02:55.597Z,9.10
2022-11-16T02:05:31.100Z,9.10
2022-11-16T02:08:49.911Z,9.10
2022-11-16T02:11:44.679Z,9.10
2022-11-16T02:14:21.351Z,9.10
2022-11-16T02:16:56.161Z,9.20
2022-11-16T02:19:51.237Z,9.10
2022-11-16T02:22:27.614Z,9.20
2022-11-16T02:25:02.625Z,9.20
2022-11-16T02:27:50.786Z,9.20
2022-11-16T02:30:22.675Z,9.20
2022-11-16T02:32:57.910Z,9.20
2022-11-16T02:35:32.368Z,9.20
2022-11-16T02:38:07.083Z,9.20
2022-11-16T02:40:41.376Z,9.20
2022-11-16T02:43:15.601Z,9.20
2022-11-16T02:45:49.840Z,9.20
2022-11-16T02:48:23.557Z,9.20
2022-11-16T02:50:56.183Z,9.20
2022-11-16T02:53:28.344Z,9.20
2022-11-16T02:56:00.344Z,9.20
2022-11-16T02:58:32.059Z,9.20
2022-11-16T03:01:06.927Z,9.10
2022-11-16T03:03:41.139Z,9.10
2022-11-16T03:06:15.388Z,9.10
2022-11-16T03:08:50.004Z,9.10
2022-11-16T03:11:39.176Z,9.10
2022-11-16T03:14:13.525Z,9.00
2022-11-16T03:16:47.097Z,9.00
2022-11-16T03:22:09.519Z,9.00
2022-11-16T03:24:41.751Z,9.00
2022-11-16T03:27:17.802Z,8.90
2022-11-16T03:29:53.557Z,8.90
2022-11-16T03:32:28.296Z,8.90
2022-11-16T03:35:02.578Z,8.90
2022-11-16T03:37:35.522Z,8.90
2022-11-16T03:40:10.081Z,8.80
2022-11-16T03:42:43.546Z,8.80
2022-11-16T03:45:15.318Z,8.80
2022-11-16T03:47:47.088Z,8.80
2022-11-16T03:50:18.447Z,8.80
2022-11-16T03:52:49.647Z,8.80
2022-11-16T03:55:21.057Z,8.80
2022-11-16T03:57:52.410Z,8.70
2022-11-16T04:00:24.033Z,8.80
2022-11-16T04:02:55.452Z,8.70
2022-11-16T04:05:44.518Z,8.70
2022-11-16T04:08:36.701Z,8.70
2022-11-16T04:11:28.678Z,8.70
2022-11-16T04:14:18.231Z,8.60
2022-11-16T04:17:07.186Z,8.70
2022-11-16T04:19:58.289Z,8.60
2022-11-16T04:22:49.807Z,8.60
2022-11-16T04:25:24.172Z,8.60
2022-11-16T04:28:14.543Z,8.60
2022-11-16T04:31:06.656Z,8.60
2022-11-16T04:34:06.637Z,8.60
2022-11-16T04:36:57.355Z,8.60
2022-11-16T04:39:28.649Z,8.70
2022-11-16T04:42:15.163Z,8.60
2022-11-16T04:45:03.973Z,8.60
2022-11-16T04:47:35.218Z,8.50
2022-11-16T04:50:08.290Z,8.60
2022-11-16T04:52:39.507Z,8.60
2022-11-16T04:55:13.006Z,8.60
2022-11-16T04:57:44.284Z,8.60
2022-11-16T05:00:17.323Z,8.60
2022-11-16T05:02:48.932Z,8.60
2022-11-16T05:05:20.695Z,8.60
2022-11-16T05:07:52.368Z,8.60
2022-11-16T05:10:24.388Z,8.60
2022-11-16T05:12:55.579Z,8.60
2022-11-16T05:15:26.920Z,8.60
2022-11-16T05:17:58.647Z,8.60
2022-11-16T05:20:47.590Z,8.50
2022-11-16T05:23:36.615Z,8.50
2022-11-16T05:26:08.005Z,8.50
2022-11-16T05:28:39.405Z,8.40
2022-11-16T05:31:10.694Z,8.40
2022-11-16T05:33:42.095Z,8.50
2022-11-16T05:36:13.236Z,8.50
2022-11-16T05:38:44.754Z,8.40
2022-11-16T05:41:15.876Z,8.50
2022-11-16T05:43:47.080Z,8.40
2022-11-16T05:46:18.227Z,8.40
2022-11-16T05:48:49.410Z,8.40
2022-11-16T05:51:21.632Z,8.50
2022-11-16T05:53:52.829Z,8.50
2022-11-16T05:56:24.168Z,8.50
2022-11-16T05:58:56.111Z,8.50
2022-11-16T06:01:28.410Z,8.50
2022-11-16T06:04:04.358Z,8.50
2022-11-16T06:06:38.735Z,8.60
2022-11-16T06:09:12.087Z,8.50
2022-11-16T06:11:43.365Z,8.60
2022-11-16T06:14:20.637Z,8.60
2022-11-16T06:16:52.403Z,8.60
2022-11-16T06:19:28.229Z,8.60
2022-11-16T06:21:57.229Z,8.60
2022-11-16T06:24:29.079Z,8.60
2022-11-16T06:27:00.564Z,8.60
2022-11-16T06:29:31.775Z,8.60
2022-11-16T06:32:03.336Z,8.60
2022-11-16T06:34:34.462Z,8.60
2022-11-16T06:37:06.202Z,8.60
2022-11-16T06:39:38.218Z,8.60
2022-11-16T06:42:09.939Z,8.60
2022-11-16T06:44:42.098Z,8.60
2022-11-16T06:47:13.243Z,8.70
2022-11-16T06:49:47.069Z,8.80
2022-11-16T06:52:18.768Z,8.80
2022-11-16T06:54:50.004Z,8.90
2022-11-16T06:57:21.337Z,8.80
2022-11-16T06:59:52.938Z,8.80
2022-11-16T07:02:24.919Z,8.80
2022-11-16T07:05:00.577Z,8.80
2022-11-16T07:07:28.963Z,8.80
2022-11-16T07:10:00.702Z,8.80
2022-11-16T07:12:32.097Z,8.80
2022-11-16T07:15:04.278Z,8.90
2022-11-16T07:17:36.675Z,8.90
2022-11-16T07:20:09.536Z,9.00
2022-11-16T07:22:40.889Z,9.00
2022-11-16T07:25:12.335Z,9.00
2022-11-16T07:27:43.544Z,9.10
2022-11-16T07:30:16.103Z,9.10
2022-11-16T07:32:47.207Z,9.20
2022-11-16T07:35:18.731Z,9.20
2022-11-16T07:37:50.163Z,9.30
2022-11-16T07:40:21.961Z,9.30
2022-11-16T07:42:53.071Z,9.30
2022-11-16T07:45:24.248Z,9.30
2022-11-16T07:47:55.469Z,9.30
2022-11-16T07:50:26.667Z,9.30
2022-11-16T07:52:58.180Z,9.30
2022-11-16T07:55:31.478Z,9.30
2022-11-16T07:58:03.380Z,9.30
2022-11-16T08:00:35.262Z,9.40
2022-11-16T08:03:06.530Z,9.40
2022-11-16T08:05:37.862Z,9.40
2022-11-16T08:08:09.286Z,9.40
2022-11-16T08:10:40.640Z,9.40
2022-11-16T08:13:11.781Z,9.50
2022-11-16T08:15:43.304Z,9.60
2022-11-16T08:18:14.794Z,9.70
2022-11-16T08:20:46.956Z,9.70
2022-11-16T08:23:18.359Z,9.60
2022-11-16T08:25:49.597Z,9.80
2022-11-16T08:28:21.092Z,9.80
2022-11-16T08:30:54.020Z,9.80
2022-11-16T08:33:25.768Z,10.00
2022-11-16T08:35:57.098Z,10.00
2022-11-16T08:38:28.754Z,10.00
2022-11-16T08:41:00.533Z,10.10
2022-11-16T08:43:33.442Z,10.20
2022-11-16T08:46:04.791Z,10.20
2022-11-16T08:48:36.474Z,10.20
2022-11-16T08:51:17.454Z,10.30
2022-11-16T08:53:43.868Z,10.40
2022-11-16T08:56:15.528Z,10.40
2022-11-16T08:58:50.260Z,10.40
2022-11-16T09:01:24.218Z,10.40
2022-11-16T09:03:55.813Z,10.50
2022-11-16T09:06:28.189Z,10.40
2022-11-16T09:09:00.892Z,10.50
2022-11-16T09:11:32.139Z,10.50
2022-11-16T09:14:03.716Z,10.60
2022-11-16T09:16:34.938Z,10.60
2022-11-16T09:19:06.047Z,10.70
2022-11-16T09:21:37.933Z,10.60
2022-11-16T09:24:10.182Z,10.60
2022-11-16T09:26:41.402Z,10.60
2022-11-16T09:29:15.370Z,10.60
2022-11-16T09:31:46.518Z,10.60
2022-11-16T09:34:17.810Z,10.70
2022-11-16T09:36:49.249Z,10.70
2022-11-16T09:39:30.915Z,10.70
2022-11-16T09:42:03.458Z,10.70
2022-11-16T09:44:52.509Z,10.80
2022-11-16T09:47:25.852Z,10.80
2022-11-16T09:50:03.676Z,11.00
2022-11-16T09:52:36.262Z,11.20
2022-11-16T09:55:16.928Z,11.40
2022-11-16T09:57:48.887Z,11.50
2022-11-16T10:00:23.688Z,11.60
2022-11-16T10:03:01.085Z,11.60
2022-11-16T10:05:36.620Z,11.70
2022-11-16T10:08:13.216Z,11.90
2022-11-16T10:10:49.587Z,12.10
2022-11-16T10:13:27.802Z,12.30
2022-11-16T10:16:04.381Z,12.40
2022-11-16T10:18:43.492Z,12.50
2022-11-16T10:21:27.147Z,12.70
2022-11-16T10:24:09.546Z,12.70
2022-11-16T10:26:44.725Z,12.80
2022-11-16T10:32:36.328Z,12.90
2022-11-16T10:35:13.525Z,12.80
2022-11-16T10:37:48.510Z,12.80
2022-11-16T10:40:24.451Z,12.80
2022-11-16T10:43:03.732Z,12.80
2022-11-16T10:45:41.250Z,12.70
2022-11-16T10:48:22.814Z,12.60
2022-11-16T10:50:54.682Z,12.70
2022-11-16T10:53:31.943Z,12.70
2022-11-16T10:56:14.081Z,12.70
2022-11-16T10:58:56.128Z,12.80
2022-11-16T11:01:33.525Z,12.70
2022-11-16T11:04:20.573Z,12.80
2022-11-16T11:06:54.034Z,12.80
2022-11-16T11:09:31.567Z,12.70
2022-11-16T11:12:24.107Z,12.60
2022-11-16T11:15:03.370Z,12.60
2022-11-16T11:17:36.434Z,12.60
2022-11-16T11:20:13.527Z,12.50
2022-11-16T11:22:47.304Z,12.40
2022-11-16T11:25:24.328Z,12.30
2022-11-16T11:28:05.970Z,12.30
2022-11-16T11:30:37.592Z,12.20
2022-11-16T11:33:13.195Z,12.10
2022-11-16T11:35:45.874Z,12.10
2022-11-16T11:38:17.471Z,12.10
2022-11-16T11:40:59.048Z,12.10
2022-11-16T11:43:33.595Z,12.10
2022-11-16T11:46:10.139Z,12.10
2022-11-16T11:48:47.890Z,12.20
2022-11-16T11:51:23.563Z,12.30
2022-11-16T11:53:57.581Z,12.40
2022-11-16T11:56:31.702Z,12.60
2022-11-16T11:59:05.206Z,12.80
2022-11-16T12:02:11.578Z,13.00
2022-11-16T12:05:04.729Z,13.10
2022-11-16T12:08:05.840Z,13.20
2022-11-16T12:10:39.584Z,13.40
2022-11-16T12:13:20.895Z,13.30
2022-11-16T12:16:01.104Z,13.30
2022-11-16T12:18:48.112Z,13.20
2022-11-16T12:21:23.054Z,13.00
2022-11-16T12:24:04.026Z,12.90
2022-11-16T12:26:36.678Z,12.80
2022-11-16T12:29:16.579Z,12.60
2022-11-16T12:32:12.287Z,12.50
2022-11-16T12:34:53.073Z,12.40
2022-11-16T12:37:25.510Z,12.30
2022-11-16T12:40:03.883Z,12.30
2022-11-16T12:42:41.136Z,12.20
2022-11-16T12:48:25.232Z,12.20
2022-11-16T12:51:00.289Z,12.20
2022-11-16T12:53:44.228Z,12.20
2022-11-16T12:56:20.650Z,12.30
2022-11-16T12:59:05.838Z,12.30
2022-11-16T13:01:39.979Z,12.30
2022-11-16T13:04:14.378Z,12.20
2022-11-16T13:06:49.049Z,12.20
2022-11-16T13:09:24.351Z,12.20
2022-11-16T13:12:01.614Z,12.20
2022-11-16T13:14:36.084Z,12.20
2022-11-16T13:17:08.448Z,12.10
2022-11-16T13:19:42.677Z,12.10
2022-11-16T13:22:17.047Z,12.10
2022-11-16T13:24:52.634Z,12.10
2022-11-16T13:27:31.274Z,12.10
2022-11-16T13:30:07.109Z,12.10
2022-11-16T13:32:50.107Z,12.10
2022-11-16T13:35:22.984Z,12.20
2022-11-16T13:37:55.683Z,12.10
2022-11-16T13:40:29.924Z,12.10
2022-11-16T13:43:05.004Z,12.20
2022-11-16T13:45:39.840Z,12.20
2022-11-16T13:48:20.325Z,12.20
2022-11-16T13:50:55.286Z,12.10
2022-11-16T13:54:25.226Z,12.20
2022-11-16T13:56:07.999Z,12.20
2022-11-16T13:58:41.439Z,12.10
2022-11-16T14:01:14.961Z,12.10
2022-11-16T14:03:47.963Z,12.10
2022-11-16T14:06:58.711Z,12.10
2022-11-16T14:09:49.589Z,12.00
2022-11-16T14:12:56.126Z,12.00
2022-11-16T14:15:33.207Z,12.00
2022-11-16T14:18:24.933Z,11.90
2022-11-16T14:20:59.201Z,11.90
2022-11-16T14:24:06.986Z,11.90
2022-11-16T14:26:48.338Z,11.90
2022-11-16T14:29:37.748Z,11.80
2022-11-16T14:32:22.877Z,11.80
2022-11-16T14:34:56.162Z,11.70
2022-11-16T14:37:34.138Z,11.70
2022-11-16T14:40:11.261Z,11.70
2022-11-16T14:43:14.902Z,11.60
2022-11-16T14:45:26.420Z,11.60
2022-11-16T14:48:01.508Z,11.50
2022-11-16T14:50:38.146Z,11.50
2022-11-16T14:53:10.200Z,11.50
2022-11-16T14:55:45.931Z,11.40
2022-11-16T14:58:22.062Z,11.30
2022-11-16T15:00:58.772Z,11.20
2022-11-16T15:03:33.275Z,11.00
2022-11-16T15:06:07.835Z,10.90
2022-11-16T15:08:42.157Z,10.70
2022-11-16T15:11:16.909Z,10.60
2022-11-16T15:13:51.695Z,10.40
2022-11-16T15:16:23.055Z,10.40
2022-11-16T15:19:20.321Z,10.20
2022-11-16T15:21:56.382Z,10.10
2022-11-16T15:24:31.292Z,10.00
2022-11-16T15:27:15.184Z,9.90
2022-11-16T15:29:46.346Z,9.90
2022-11-16T15:32:18.812Z,9.80
2022-11-16T15:34:53.544Z,9.80
2022-11-16T15:37:34.305Z,9.70
2022-11-16T15:40:07.867Z,9.60
2022-11-16T15:42:40.859Z,9.60
2022-11-16T15:45:18.216Z,9.50
2022-11-16T15:47:50.269Z,9.40
2022-11-16T15:50:23.797Z,9.40
2022-11-16T15:52:56.011Z,9.30
2022-11-16T15:55:34.924Z,9.30
2022-11-16T15:58:15.830Z,9.20
2022-11-16T16:00:49.999Z,9.20
2022-11-16T16:03:24.710Z,9.20
2022-11-16T16:05:56.804Z,9.10
2022-11-16T16:08:34.204Z,9.10
2022-11-16T16:11:11.965Z,9.10
2022-11-16T16:13:45.231Z,9.10
2022-11-16T16:16:32.137Z,9.10
2022-11-16T16:19:09.723Z,9.10
2022-11-16T16:21:46.170Z,9.10
2022-11-16T16:24:38.699Z,9.10
2022-11-16T16:27:20.705Z,9.10
2022-11-16T16:29:53.295Z,9.10
2022-11-16T16:32:27.579Z,9.10
2022-11-16T16:35:00.280Z,9.10
2022-11-16T16:37:33.826Z,9.00
2022-11-16T16:40:06.369Z,8.90
2022-11-16T16:42:38.340Z,8.80
2022-11-16T16:47:53.309Z,8.60
2022-11-16T16:50:27.188Z,8.50
2022-11-16T16:53:01.619Z,8.50
2022-11-16T16:55:37.019Z,8.40
2022-11-16T16:58:06.036Z,8.40
2022-11-16T17:00:37.429Z,8.30
2022-11-16T17:03:08.752Z,8.30
2022-11-16T17:05:39.999Z,8.30
2022-11-16T17:08:11.275Z,8.30
2022-11-16T17:10:42.519Z,8.30
2022-11-16T17:13:14.039Z,8.30
2022-11-16T17:15:46.434Z,8.30
2022-11-16T17:18:17.716Z,8.30
2022-11-16T17:20:49.310Z,8.30
2022-11-16T17:23:20.603Z,8.30
2022-11-16T17:25:52.060Z,8.30
2022-11-16T17:28:23.158Z,8.30
2022-11-16T17:30:53.044Z,8.30
2022-11-16T17:33:24.004Z,8.30
2022-11-16T17:35:57.795Z,8.40
2022-11-16T17:38:29.054Z,8.40
2022-11-16T17:41:05.698Z,8.40
2022-11-16T17:43:37.399Z,8.40
2022-11-16T17:46:10.497Z,8.50
2022-11-16T17:48:43.279Z,8.40
2022-11-16T17:51:15.891Z,8.40
2022-11-16T17:53:47.211Z,8.30
2022-11-16T17:56:20.480Z,8.20
2022-11-16T17:58:52.143Z,8.20
2022-11-16T18:01:23.856Z,8.20
2022-11-16T18:03:55.172Z,8.20
2022-11-16T18:06:27.061Z,8.30
2022-11-16T18:08:59.121Z,8.30
2022-11-16T18:11:30.565Z,8.30
2022-11-16T18:14:04.283Z,8.30
2022-11-16T18:16:36.472Z,8.30
2022-11-16T18:19:08.697Z,8.20
2022-11-16T18:21:42.246Z,8.10
2022-11-16T18:24:13.906Z,7.90
2022-11-16T18:26:45.176Z,7.80
2022-11-16T18:29:18.021Z,7.80
2022-11-16T18:31:49.313Z,7.80
2022-11-16T18:34:20.544Z,7.80
2022-11-16T18:36:51.908Z,7.70
2022-11-16T18:39:23.224Z,7.50
2022-11-16T18:41:55.856Z,7.40
2022-11-16T18:44:27.561Z,7.40
2022-11-16T18:47:03.048Z,7.40
2022-11-16T18:49:34.655Z,7.40
2022-11-16T18:52:25.356Z,7.40
2022-11-16T18:54:56.681Z,7.40
2022-11-16T18:57:28.129Z,7.50
2022-11-16T18:59:59.486Z,7.50
2022-11-16T19:02:30.723Z,7.50
2022-11-16T19:05:02.112Z,7.60
2022-11-16T19:07:33.547Z,7.70
2022-11-16T19:10:05.460Z,7.80
2022-11-16T19:12:36.817Z,7.80
2022-11-16T19:15:09.591Z,7.90
2022-11-16T19:17:59.638Z,7.90
2022-11-16T19:20:15.108Z,7.90
2022-11-16T19:22:46.015Z,7.90
2022-11-16T19:25:17.571Z,7.80
2022-11-16T19:27:48.994Z,7.70
2022-11-16T19:30:20.982Z,7.60
2022-11-16T19:32:57.141Z,7.70
2022-11-16T19:35:28.924Z,7.70
2022-11-16T19:38:00.290Z,7.80
2022-11-16T19:40:31.486Z,7.90
2022-11-16T19:43:02.737Z,7.90
2022-11-16T19:45:34.260Z,7.90
2022-11-16T19:48:06.122Z,7.90
2022-11-16T19:50:37.886Z,7.90
2022-11-16T19:53:09.039Z,7.80
2022-11-16T19:55:41.686Z,7.80
2022-11-16T19:58:12.973Z,7.80
2022-11-16T20:00:44.726Z,7.70
2022-11-16T20:03:16.385Z,7.70
2022-11-16T20:05:47.580Z,7.60
2022-11-16T20:08:18.826Z,7.50
2022-11-16T20:10:50.187Z,7.50
2022-11-16T20:13:21.785Z,7.40
2022-11-16T20:15:53.215Z,7.30
2022-11-16T20:18:24.542Z,7.30
2022-11-16T20:20:55.961Z,7.30
2022-11-16T20:23:27.314Z,7.20
2022-11-16T20:25:58.652Z,7.20
2022-11-16T20:28:29.806Z,7.30
2022-11-16T20:31:01.760Z,7.40
2022-11-16T20:33:34.370Z,7.50
2022-11-16T20:36:10.218Z,7.50
2022-11-16T20:38:42.005Z,7.50
2022-11-16T20:41:14.999Z,7.60
2022-11-16T20:43:47.443Z,7.70
2022-11-16T20:46:19.691Z,7.60
2022-11-16T20:48:51.469Z,7.70
2022-11-16T20:51:22.749Z,7.70
2022-11-16T20:53:53.883Z,7.80
2022-11-16T20:56:25.434Z,7.80
2022-11-16T20:58:56.864Z,7.90
2022-11-16T21:01:30.866Z,8.00
2022-11-16T21:04:03.489Z,8.00
2022-11-16T21:06:36.780Z,8.00
2022-11-16T21:09:08.719Z,7.90
2022-11-16T21:11:58.967Z,7.90
2022-11-16T21:14:35.906Z,7.80
2022-11-16T21:17:07.896Z,7.90
2022-11-16T21:19:54.289Z,7.90
2022-11-16T21:22:13.434Z,7.90
2022-11-16T21:24:44.626Z,8.00
2022-11-16T21:27:14.545Z,8.00
2022-11-16T21:29:45.675Z,8.10
2022-11-16T21:32:17.404Z,8.10
2022-11-16T21:34:48.480Z,8.10
2022-11-16T21:37:21.462Z,8.20
2022-11-16T21:39:55.767Z,8.20
2022-11-16T21:42:26.852Z,8.20
2022-11-16T21:44:56.717Z,8.10
2022-11-16T21:47:27.695Z,8.10
2022-11-16T21:50:30.035Z,8.20
2022-11-16T21:52:31.716Z,8.20
2022-11-16T21:55:03.667Z,8.30
2022-11-16T21:57:34.767Z,8.40
2022-11-16T22:00:05.631Z,8.40
2022-11-16T22:02:36.581Z,8.30
2022-11-16T22:05:25.793Z,8.30
2022-11-16T22:07:56.768Z,8.20
2022-11-16T22:10:28.436Z,8.10
2022-11-16T22:12:59.619Z,8.10
2022-11-16T22:15:30.816Z,8.00
2022-11-16T22:18:04.087Z,8.00
2022-11-16T22:20:35.223Z,8.00
2022-11-16T22:23:06.960Z,8.00
2022-11-16T22:25:39.026Z,7.90
2022-11-16T22:28:25.738Z,7.90
2022-11-16T22:30:50.087Z,8.00
2022-11-16T22:33:17.465Z,8.00
2022-11-16T22:35:49.177Z,8.00
2022-11-16T22:38:20.364Z,8.00
2022-11-16T22:40:52.537Z,7.90
2022-11-16T22:43:25.588Z,7.90
2022-11-16T22:45:59.628Z,7.90
2022-11-16T22:48:32.262Z,7.90
2022-11-16T22:51:09.591Z,7.90
2022-11-16T22:53:40.824Z,7.90
2022-11-16T22:56:12.531Z,7.90
2022-11-16T22:58:43.730Z,7.80
2022-11-16T23:01:15.057Z,7.90
2022-11-16T23:03:46.484Z,7.90
2022-11-16T23:06:17.884Z,8.00
2022-11-16T23:08:49.519Z,7.90
2022-11-16T23:11:39.994Z,8.00
2022-11-16T23:14:31.676Z,8.10
2022-11-16T23:17:03.371Z,8.20
2022-11-16T23:19:53.718Z,8.30
2022-11-16T23:22:42.693Z,8.20
2022-11-16T23:25:31.691Z,8.20
2022-11-16T23:28:06.374Z,8.20
2022-11-16T23:30:39.675Z,8.20
2022-11-16T23:33:24.308Z,8.10
2022-11-16T23:35:55.415Z,8.10
2022-11-16T23:38:25.315Z,8.00
2022-11-16T23:40:56.332Z,7.90
2022-11-16T23:43:45.448Z,8.00
2022-11-16T23:46:16.552Z,8.00
2022-11-16T23:48:46.591Z,8.20
2022-11-16T23:51:19.304Z,8.40
2022-11-16T23:53:51.525Z,8.60
2022-11-16T23:56:23.407Z,8.50
2022-11-16T23:58:58.088Z,8.50
